Airfield :
LOGIN :

Register | Disclaimer

   EN    FR    IT 

 










Legend :    VFR   Marginal VFR   IFR   Intensive IFR   Very Intensive IFR
Visi :
Ceiling :
>= 8 km
>= 3000ft
5 to 8 km
1000 to 3000 ft
1500m to 5 km
500 to 1000 ft
800 to 1500m
200 to 500 ft
< 800m
< 200 ft
Symbols :   Thunderstorms  Fog  Heavy snow  Heavy precipitations  Wind > 20 kt
SIGMETs :     Misc.  Thunderstorms  Icing  Turbulence  Mountain Waves  Volcanic Ashes







- Airport Elevation : 65 ft
- IATA code : PIK
- Download approach charts


EGPK - Glasgow Prestwick

CURRENT METAR :
  • 201920Z 29008KT 9999 FEW030 16/11 Q1010

EXPIRED METARs :
  • 201850Z 27009KT 9999 FEW030 17/11 Q1009
  • 201820Z 29012KT 9999 SCT030 17/10 Q1009
  • 201750Z 29013KT 9999 SCT030 17/11 Q1009
  • 201720Z 29014KT 9999 SCT028 17/11 Q1008
  • 201650Z 28014KT 9999 SCT028 17/11 Q1008

TAF TAF EGPK
Valid from the 20 at 18:00 until the 21 at 18:00 UTC


201700Z 2018/2118 28010KT 9999 SCT030
BECMG 2018/2021 22006KT
PROB30
TEMPO 2111/2116 8000 -SHRA
TEMPO 2112/2118 18018G28KT
TEMPO 2116/2118 5000 SHRA RA
No reported NOTAMs for that airfield.



MET'MAP, your aeronautical weather chart ! - Copyright ORBIFLY December 2007 - Disclaimer

ORBIFLY MET'MAP TEAM :

Programming & Development : Alexandra Zaïnal
Concept & Development : Baudouin d'Aumeries
Co-Development & Prog : Marc-Olivier Méhu
Technical & hardware support : Manuel Goepfert

Contact : metmap@orbifly.com




SOURCES & CREDITS :

   NOAA